sensor_id;sensor_type;location;lat;lon;timestamp;temperature;humidity
8002;DHT22;4046;48.774;8.732;2023-07-29T00:02:08;22.20;99.90
8002;DHT22;4046;48.774;8.732;2023-07-29T00:04:34;22.20;99.90
8002;DHT22;4046;48.774;8.732;2023-07-29T00:07:00;22.20;99.90
8002;DHT22;4046;48.774;8.732;2023-07-29T00:09:26;22.30;99.90
8002;DHT22;4046;48.774;8.732;2023-07-29T00:11:51;22.10;99.90
8002;DHT22;4046;48.774;8.732;2023-07-29T00:14:17;22.30;99.90
8002;DHT22;4046;48.774;8.732;2023-07-29T00:16:43;22.20;99.90
8002;DHT22;4046;48.774;8.732;2023-07-29T00:19:09;22.20;99.90
8002;DHT22;4046;48.774;8.732;2023-07-29T00:21:35;22.20;99.90
8002;DHT22;4046;48.774;8.732;2023-07-29T00:24:01;22.20;99.90
8002;DHT22;4046;48.774;8.732;2023-07-29T00:26:27;22.20;99.90
8002;DHT22;4046;48.774;8.732;2023-07-29T00:28:55;22.20;99.90
8002;DHT22;4046;48.774;8.732;2023-07-29T00:31:21;22.20;99.90
8002;DHT22;4046;48.774;8.732;2023-07-29T00:33:47;22.20;99.90
8002;DHT22;4046;48.774;8.732;2023-07-29T00:36:13;22.20;99.90
8002;DHT22;4046;48.774;8.732;2023-07-29T00:38:38;22.20;99.90
8002;DHT22;4046;48.774;8.732;2023-07-29T00:41:04;22.20;99.90
8002;DHT22;4046;48.774;8.732;2023-07-29T00:43:30;22.20;99.90
8002;DHT22;4046;48.774;8.732;2023-07-29T00:45:56;22.20;99.90
8002;DHT22;4046;48.774;8.732;2023-07-29T00:48:23;22.20;99.90
8002;DHT22;4046;48.774;8.732;2023-07-29T00:50:50;22.20;99.90
8002;DHT22;4046;48.774;8.732;2023-07-29T00:53:16;22.20;99.90
8002;DHT22;4046;48.774;8.732;2023-07-29T00:55:42;22.20;99.90
8002;DHT22;4046;48.774;8.732;2023-07-29T00:58:08;22.20;99.90
8002;DHT22;4046;48.774;8.732;2023-07-29T01:00:34;22.20;99.90
8002;DHT22;4046;48.774;8.732;2023-07-29T01:02:59;22.20;99.90
8002;DHT22;4046;48.774;8.732;2023-07-29T01:05:32;22.10;99.90
8002;DHT22;4046;48.774;8.732;2023-07-29T01:08:20;22.10;99.90
8002;DHT22;4046;48.774;8.732;2023-07-29T01:11:03;22.30;99.90
8002;DHT22;4046;48.774;8.732;2023-07-29T01:13:37;22.10;99.90
8002;DHT22;4046;48.774;8.732;2023-07-29T01:16:15;22.10;99.90
8002;DHT22;4046;48.774;8.732;2023-07-29T01:18:47;22.10;99.90
8002;DHT22;4046;48.774;8.732;2023-07-29T01:21:14;22.10;99.90
8002;DHT22;4046;48.774;8.732;2023-07-29T01:23:41;22.10;99.90
8002;DHT22;4046;48.774;8.732;2023-07-29T01:26:07;22.20;99.90
8002;DHT22;4046;48.774;8.732;2023-07-29T01:28:33;22.10;99.90
8002;DHT22;4046;48.774;8.732;2023-07-29T01:31:10;22.10;99.90
8002;DHT22;4046;48.774;8.732;2023-07-29T01:33:58;22.10;99.90
8002;DHT22;4046;48.774;8.732;2023-07-29T01:36:28;22.10;99.90
8002;DHT22;4046;48.774;8.732;2023-07-29T01:38:56;22.10;99.90
8002;DHT22;4046;48.774;8.732;2023-07-29T01:41:24;22.10;99.90
8002;DHT22;4046;48.774;8.732;2023-07-29T01:43:51;22.10;99.90
8002;DHT22;4046;48.774;8.732;2023-07-29T01:46:17;22.10;99.90
8002;DHT22;4046;48.774;8.732;2023-07-29T01:48:43;22.10;99.90
8002;DHT22;4046;48.774;8.732;2023-07-29T01:51:11;22.10;99.90
8002;DHT22;4046;48.774;8.732;2023-07-29T01:53:37;22.10;99.90
8002;DHT22;4046;48.774;8.732;2023-07-29T01:56:03;22.10;99.90
8002;DHT22;4046;48.774;8.732;2023-07-29T01:58:29;22.10;99.90
8002;DHT22;4046;48.774;8.732;2023-07-29T02:00:55;22.10;99.90
8002;DHT22;4046;48.774;8.732;2023-07-29T02:03:21;22.10;99.90
8002;DHT22;4046;48.774;8.732;2023-07-29T02:05:47;22.10;99.90
8002;DHT22;4046;48.774;8.732;2023-07-29T02:08:12;22.10;99.90
8002;DHT22;4046;48.774;8.732;2023-07-29T02:10:39;22.10;99.90
8002;DHT22;4046;48.774;8.732;2023-07-29T02:13:05;22.10;99.90
8002;DHT22;4046;48.774;8.732;2023-07-29T02:15:31;22.10;99.90
8002;DHT22;4046;48.774;8.732;2023-07-29T02:17:56;22.10;99.90
8002;DHT22;4046;48.774;8.732;2023-07-29T02:20:24;22.10;99.90
8002;DHT22;4046;48.774;8.732;2023-07-29T02:22:50;22.10;99.90
8002;DHT22;4046;48.774;8.732;2023-07-29T02:25:16;22.10;99.90
8002;DHT22;4046;48.774;8.732;2023-07-29T02:27:41;22.10;99.90
8002;DHT22;4046;48.774;8.732;2023-07-29T02:30:07;22.10;99.90
8002;DHT22;4046;48.774;8.732;2023-07-29T02:32:35;22.10;99.90
8002;DHT22;4046;48.774;8.732;2023-07-29T02:35:01;22.10;99.90
8002;DHT22;4046;48.774;8.732;2023-07-29T02:37:26;22.10;99.90
8002;DHT22;4046;48.774;8.732;2023-07-29T02:39:52;22.10;99.90
8002;DHT22;4046;48.774;8.732;2023-07-29T02:42:18;22.10;99.90
8002;DHT22;4046;48.774;8.732;2023-07-29T02:44:44;22.10;99.90
8002;DHT22;4046;48.774;8.732;2023-07-29T02:47:09;22.10;99.90
8002;DHT22;4046;48.774;8.732;2023-07-29T02:49:35;22.00;99.90
8002;DHT22;4046;48.774;8.732;2023-07-29T02:52:01;21.80;99.90
8002;DHT22;4046;48.774;8.732;2023-07-29T02:54:27;22.10;99.90
8002;DHT22;4046;48.774;8.732;2023-07-29T02:56:53;22.10;99.90
8002;DHT22;4046;48.774;8.732;2023-07-29T02:59:19;22.10;99.90
8002;DHT22;4046;48.774;8.732;2023-07-29T03:01:45;22.10;99.90
8002;DHT22;4046;48.774;8.732;2023-07-29T03:04:11;21.80;99.90
8002;DHT22;4046;48.774;8.732;2023-07-29T03:06:38;22.10;99.90
8002;DHT22;4046;48.774;8.732;2023-07-29T03:09:04;22.10;99.90
8002;DHT22;4046;48.774;8.732;2023-07-29T03:11:30;22.10;99.90
8002;DHT22;4046;48.774;8.732;2023-07-29T03:13:56;22.10;99.90
8002;DHT22;4046;48.774;8.732;2023-07-29T03:16:22;22.00;99.90
8002;DHT22;4046;48.774;8.732;2023-07-29T03:18:49;22.10;99.90
8002;DHT22;4046;48.774;8.732;2023-07-29T03:21:14;22.00;99.90
8002;DHT22;4046;48.774;8.732;2023-07-29T03:23:40;22.00;99.90
8002;DHT22;4046;48.774;8.732;2023-07-29T03:26:06;22.10;99.90
8002;DHT22;4046;48.774;8.732;2023-07-29T03:28:40;22.10;99.90
8002;DHT22;4046;48.774;8.732;2023-07-29T03:31:07;22.10;99.90
8002;DHT22;4046;48.774;8.732;2023-07-29T03:33:33;22.10;99.90
8002;DHT22;4046;48.774;8.732;2023-07-29T03:35:59;22.10;99.90
8002;DHT22;4046;48.774;8.732;2023-07-29T03:38:27;22.10;99.90
8002;DHT22;4046;48.774;8.732;2023-07-29T03:40:53;22.00;99.90
8002;DHT22;4046;48.774;8.732;2023-07-29T03:43:19;22.00;99.90
8002;DHT22;4046;48.774;8.732;2023-07-29T03:45:45;22.10;99.90
8002;DHT22;4046;48.774;8.732;2023-07-29T03:48:11;22.10;99.90
8002;DHT22;4046;48.774;8.732;2023-07-29T03:50:37;22.00;99.90
8002;DHT22;4046;48.774;8.732;2023-07-29T03:53:04;22.10;99.90
8002;DHT22;4046;48.774;8.732;2023-07-29T03:55:30;22.00;99.90
8002;DHT22;4046;48.774;8.732;2023-07-29T03:58:00;22.00;99.90
8002;DHT22;4046;48.774;8.732;2023-07-29T04:00:26;22.00;99.90
8002;DHT22;4046;48.774;8.732;2023-07-29T04:02:53;22.00;99.90
8002;DHT22;4046;48.774;8.732;2023-07-29T04:05:19;22.00;99.90
8002;DHT22;4046;48.774;8.732;2023-07-29T04:07:45;22.00;99.90
8002;DHT22;4046;48.774;8.732;2023-07-29T04:10:11;22.00;99.90
8002;DHT22;4046;48.774;8.732;2023-07-29T04:12:37;22.00;99.90
8002;DHT22;4046;48.774;8.732;2023-07-29T04:15:02;22.00;99.90
8002;DHT22;4046;48.774;8.732;2023-07-29T04:17:28;22.00;99.90
8002;DHT22;4046;48.774;8.732;2023-07-29T04:19:54;22.00;99.90
8002;DHT22;4046;48.774;8.732;2023-07-29T04:22:20;22.10;99.90
8002;DHT22;4046;48.774;8.732;2023-07-29T04:24:46;22.00;99.90
8002;DHT22;4046;48.774;8.732;2023-07-29T04:27:12;22.00;99.90
8002;DHT22;4046;48.774;8.732;2023-07-29T04:29:38;22.00;99.90
8002;DHT22;4046;48.774;8.732;2023-07-29T04:32:04;22.00;99.90
8002;DHT22;4046;48.774;8.732;2023-07-29T04:34:31;22.00;99.90
8002;DHT22;4046;48.774;8.732;2023-07-29T04:36:57;22.00;99.90
8002;DHT22;4046;48.774;8.732;2023-07-29T04:39:22;22.00;99.90
8002;DHT22;4046;48.774;8.732;2023-07-29T04:41:48;22.00;99.90
8002;DHT22;4046;48.774;8.732;2023-07-29T04:44:14;22.00;99.90
8002;DHT22;4046;48.774;8.732;2023-07-29T04:46:40;22.00;99.90
8002;DHT22;4046;48.774;8.732;2023-07-29T04:49:06;22.00;99.90
8002;DHT22;4046;48.774;8.732;2023-07-29T04:51:32;22.00;99.90
8002;DHT22;4046;48.774;8.732;2023-07-29T04:53:58;22.10;99.90
8002;DHT22;4046;48.774;8.732;2023-07-29T04:56:25;22.00;99.90
8002;DHT22;4046;48.774;8.732;2023-07-29T04:58:51;22.00;99.90
8002;DHT22;4046;48.774;8.732;2023-07-29T05:01:18;22.00;99.90
8002;DHT22;4046;48.774;8.732;2023-07-29T05:03:43;22.00;99.90
8002;DHT22;4046;48.774;8.732;2023-07-29T05:06:09;22.00;99.90
8002;DHT22;4046;48.774;8.732;2023-07-29T05:08:36;22.30;99.90
8002;DHT22;4046;48.774;8.732;2023-07-29T05:11:01;22.00;99.90
8002;DHT22;4046;48.774;8.732;2023-07-29T05:13:27;22.00;99.90
8002;DHT22;4046;48.774;8.732;2023-07-29T05:15:53;22.00;99.90
8002;DHT22;4046;48.774;8.732;2023-07-29T05:18:19;22.00;99.90
8002;DHT22;4046;48.774;8.732;2023-07-29T05:20:46;22.00;99.90
8002;DHT22;4046;48.774;8.732;2023-07-29T05:23:12;22.00;99.90
8002;DHT22;4046;48.774;8.732;2023-07-29T05:25:38;22.00;99.90
8002;DHT22;4046;48.774;8.732;2023-07-29T05:28:04;22.00;99.90
8002;DHT22;4046;48.774;8.732;2023-07-29T05:30:30;22.00;99.90
8002;DHT22;4046;48.774;8.732;2023-07-29T05:33:03;22.00;99.90
8002;DHT22;4046;48.774;8.732;2023-07-29T05:35:29;22.00;99.90
8002;DHT22;4046;48.774;8.732;2023-07-29T05:37:54;22.00;99.90
8002;DHT22;4046;48.774;8.732;2023-07-29T05:40:21;22.00;99.90
8002;DHT22;4046;48.774;8.732;2023-07-29T05:42:46;22.00;99.90
8002;DHT22;4046;48.774;8.732;2023-07-29T05:45:13;22.00;99.90
8002;DHT22;4046;48.774;8.732;2023-07-29T05:47:39;22.00;99.90
8002;DHT22;4046;48.774;8.732;2023-07-29T05:50:05;22.10;99.90
8002;DHT22;4046;48.774;8.732;2023-07-29T05:52:34;22.00;99.90
8002;DHT22;4046;48.774;8.732;2023-07-29T05:55:00;22.00;99.90
8002;DHT22;4046;48.774;8.732;2023-07-29T05:57:26;22.00;99.90
8002;DHT22;4046;48.774;8.732;2023-07-29T05:59:52;22.00;99.90
8002;DHT22;4046;48.774;8.732;2023-07-29T06:02:18;22.00;99.90
8002;DHT22;4046;48.774;8.732;2023-07-29T06:04:43;22.00;99.90
8002;DHT22;4046;48.774;8.732;2023-07-29T06:07:09;22.00;99.90
8002;DHT22;4046;48.774;8.732;2023-07-29T06:09:35;22.00;99.90
8002;DHT22;4046;48.774;8.732;2023-07-29T06:12:01;22.00;99.90
8002;DHT22;4046;48.774;8.732;2023-07-29T06:14:27;22.00;99.90
8002;DHT22;4046;48.774;8.732;2023-07-29T06:16:52;22.00;99.90
8002;DHT22;4046;48.774;8.732;2023-07-29T06:19:20;22.00;99.90
8002;DHT22;4046;48.774;8.732;2023-07-29T06:21:46;22.00;99.90
8002;DHT22;4046;48.774;8.732;2023-07-29T06:24:12;22.00;99.90
8002;DHT22;4046;48.774;8.732;2023-07-29T06:26:38;22.20;99.90
8002;DHT22;4046;48.774;8.732;2023-07-29T06:29:04;22.00;99.90
8002;DHT22;4046;48.774;8.732;2023-07-29T06:31:30;22.00;99.90
8002;DHT22;4046;48.774;8.732;2023-07-29T06:33:58;22.00;99.90
8002;DHT22;4046;48.774;8.732;2023-07-29T06:36:24;22.00;99.90
8002;DHT22;4046;48.774;8.732;2023-07-29T06:38:50;22.00;99.90
8002;DHT22;4046;48.774;8.732;2023-07-29T06:41:15;22.00;99.90
8002;DHT22;4046;48.774;8.732;2023-07-29T06:43:42;22.00;99.90
8002;DHT22;4046;48.774;8.732;2023-07-29T06:46:07;22.30;99.90
8002;DHT22;4046;48.774;8.732;2023-07-29T06:48:33;22.00;99.90
8002;DHT22;4046;48.774;8.732;2023-07-29T06:50:59;22.00;99.90
8002;DHT22;4046;48.774;8.732;2023-07-29T06:53:27;22.00;99.90
8002;DHT22;4046;48.774;8.732;2023-07-29T06:55:52;22.00;99.90
8002;DHT22;4046;48.774;8.732;2023-07-29T06:58:19;22.00;99.90
8002;DHT22;4046;48.774;8.732;2023-07-29T07:00:45;22.00;99.90
8002;DHT22;4046;48.774;8.732;2023-07-29T07:03:10;22.00;99.90
8002;DHT22;4046;48.774;8.732;2023-07-29T07:05:36;22.00;99.90
8002;DHT22;4046;48.774;8.732;2023-07-29T07:08:02;22.00;99.90
8002;DHT22;4046;48.774;8.732;2023-07-29T07:10:28;22.00;99.90
8002;DHT22;4046;48.774;8.732;2023-07-29T07:12:54;22.00;99.90
8002;DHT22;4046;48.774;8.732;2023-07-29T07:15:19;22.10;99.90
8002;DHT22;4046;48.774;8.732;2023-07-29T07:17:45;22.00;99.90
8002;DHT22;4046;48.774;8.732;2023-07-29T07:20:11;22.00;99.90
8002;DHT22;4046;48.774;8.732;2023-07-29T07:22:37;22.00;99.90
8002;DHT22;4046;48.774;8.732;2023-07-29T07:25:03;22.00;99.90
8002;DHT22;4046;48.774;8.732;2023-07-29T07:27:29;22.00;99.90
8002;DHT22;4046;48.774;8.732;2023-07-29T07:29:54;22.10;99.90
8002;DHT22;4046;48.774;8.732;2023-07-29T07:32:20;22.10;99.90
8002;DHT22;4046;48.774;8.732;2023-07-29T07:34:46;22.10;99.90
8002;DHT22;4046;48.774;8.732;2023-07-29T07:37:12;22.10;99.90
8002;DHT22;4046;48.774;8.732;2023-07-29T07:39:37;22.10;99.90
8002;DHT22;4046;48.774;8.732;2023-07-29T07:42:04;22.10;99.90
8002;DHT22;4046;48.774;8.732;2023-07-29T07:44:30;22.10;99.90
8002;DHT22;4046;48.774;8.732;2023-07-29T07:46:55;22.10;99.90
8002;DHT22;4046;48.774;8.732;2023-07-29T07:49:22;22.10;99.90
8002;DHT22;4046;48.774;8.732;2023-07-29T07:51:48;22.20;99.90
8002;DHT22;4046;48.774;8.732;2023-07-29T07:54:13;22.10;99.90
8002;DHT22;4046;48.774;8.732;2023-07-29T07:56:39;22.20;99.90
8002;DHT22;4046;48.774;8.732;2023-07-29T07:59:05;22.20;99.90
8002;DHT22;4046;48.774;8.732;2023-07-29T08:01:35;22.20;99.90
8002;DHT22;4046;48.774;8.732;2023-07-29T08:04:02;22.30;99.90
8002;DHT22;4046;48.774;8.732;2023-07-29T08:06:28;22.10;99.90
8002;DHT22;4046;48.774;8.732;2023-07-29T08:08:53;22.10;99.90
8002;DHT22;4046;48.774;8.732;2023-07-29T08:11:20;22.30;99.90
8002;DHT22;4046;48.774;8.732;2023-07-29T08:13:46;22.10;99.90
8002;DHT22;4046;48.774;8.732;2023-07-29T08:16:12;22.10;99.90
8002;DHT22;4046;48.774;8.732;2023-07-29T08:18:38;22.10;99.90
8002;DHT22;4046;48.774;8.732;2023-07-29T08:21:04;22.10;99.90
8002;DHT22;4046;48.774;8.732;2023-07-29T08:23:31;22.10;99.90
8002;DHT22;4046;48.774;8.732;2023-07-29T08:25:59;22.20;99.90
8002;DHT22;4046;48.774;8.732;2023-07-29T08:28:28;22.20;99.90
8002;DHT22;4046;48.774;8.732;2023-07-29T08:30:55;22.20;99.90
8002;DHT22;4046;48.774;8.732;2023-07-29T08:33:21;22.20;99.90
8002;DHT22;4046;48.774;8.732;2023-07-29T08:35:46;22.20;99.90
8002;DHT22;4046;48.774;8.732;2023-07-29T08:38:12;22.20;99.90
8002;DHT22;4046;48.774;8.732;2023-07-29T08:43:31;22.20;99.90
8002;DHT22;4046;48.774;8.732;2023-07-29T08:46:00;22.20;99.90
8002;DHT22;4046;48.774;8.732;2023-07-29T08:48:36;22.30;99.90
8002;DHT22;4046;48.774;8.732;2023-07-29T08:51:05;22.20;99.90
8002;DHT22;4046;48.774;8.732;2023-07-29T08:53:32;22.20;99.90
8002;DHT22;4046;48.774;8.732;2023-07-29T08:55:58;22.20;99.90
8002;DHT22;4046;48.774;8.732;2023-07-29T08:58:24;22.20;99.90
8002;DHT22;4046;48.774;8.732;2023-07-29T09:00:51;22.20;99.90
8002;DHT22;4046;48.774;8.732;2023-07-29T09:03:16;22.20;99.90
8002;DHT22;4046;48.774;8.732;2023-07-29T09:05:42;22.20;99.90
8002;DHT22;4046;48.774;8.732;2023-07-29T09:08:08;22.20;99.90
8002;DHT22;4046;48.774;8.732;2023-07-29T09:10:37;22.30;99.90
8002;DHT22;4046;48.774;8.732;2023-07-29T09:13:04;22.30;99.90
8002;DHT22;4046;48.774;8.732;2023-07-29T09:15:31;22.30;99.90
8002;DHT22;4046;48.774;8.732;2023-07-29T09:17:58;22.30;99.90
8002;DHT22;4046;48.774;8.732;2023-07-29T09:20:27;22.30;99.90
8002;DHT22;4046;48.774;8.732;2023-07-29T09:22:58;22.30;99.90
8002;DHT22;4046;48.774;8.732;2023-07-29T09:25:30;22.40;99.90
8002;DHT22;4046;48.774;8.732;2023-07-29T09:27:59;22.40;99.90
8002;DHT22;4046;48.774;8.732;2023-07-29T09:30:26;22.40;99.90
8002;DHT22;4046;48.774;8.732;2023-07-29T09:32:58;22.40;99.90
8002;DHT22;4046;48.774;8.732;2023-07-29T09:35:27;22.40;99.90
8002;DHT22;4046;48.774;8.732;2023-07-29T09:37:53;22.30;99.90
8002;DHT22;4046;48.774;8.732;2023-07-29T09:40:19;22.40;99.90
8002;DHT22;4046;48.774;8.732;2023-07-29T09:42:55;22.40;99.90
8002;DHT22;4046;48.774;8.732;2023-07-29T09:45:25;22.70;99.90
8002;DHT22;4046;48.774;8.732;2023-07-29T09:47:53;22.40;99.90
8002;DHT22;4046;48.774;8.732;2023-07-29T09:50:23;22.40;99.90
8002;DHT22;4046;48.774;8.732;2023-07-29T09:52:50;22.40;99.90
8002;DHT22;4046;48.774;8.732;2023-07-29T09:55:21;22.40;99.90
8002;DHT22;4046;48.774;8.732;2023-07-29T09:57:47;22.40;99.90
8002;DHT22;4046;48.774;8.732;2023-07-29T10:00:13;22.40;99.90
8002;DHT22;4046;48.774;8.732;2023-07-29T10:02:43;22.40;99.90
8002;DHT22;4046;48.774;8.732;2023-07-29T10:05:09;22.40;99.90
8002;DHT22;4046;48.774;8.732;2023-07-29T10:07:39;22.40;99.90
8002;DHT22;4046;48.774;8.732;2023-07-29T10:10:06;22.40;99.90
8002;DHT22;4046;48.774;8.732;2023-07-29T10:12:34;22.40;99.90
8002;DHT22;4046;48.774;8.732;2023-07-29T10:15:04;22.40;99.90
8002;DHT22;4046;48.774;8.732;2023-07-29T10:17:33;22.30;99.90
8002;DHT22;4046;48.774;8.732;2023-07-29T10:20:00;22.30;99.90
8002;DHT22;4046;48.774;8.732;2023-07-29T10:22:37;22.40;99.90
8002;DHT22;4046;48.774;8.732;2023-07-29T10:25:07;22.40;99.90
8002;DHT22;4046;48.774;8.732;2023-07-29T10:27:44;22.40;99.90
8002;DHT22;4046;48.774;8.732;2023-07-29T10:30:12;22.40;99.90
8002;DHT22;4046;48.774;8.732;2023-07-29T10:32:42;22.40;99.90
8002;DHT22;4046;48.774;8.732;2023-07-29T10:35:15;22.40;99.90
8002;DHT22;4046;48.774;8.732;2023-07-29T10:37:42;22.40;99.90
8002;DHT22;4046;48.774;8.732;2023-07-29T10:40:09;22.50;99.90
8002;DHT22;4046;48.774;8.732;2023-07-29T10:42:37;22.50;99.90
8002;DHT22;4046;48.774;8.732;2023-07-29T10:45:19;22.50;99.90
8002;DHT22;4046;48.774;8.732;2023-07-29T10:47:46;22.50;99.90
8002;DHT22;4046;48.774;8.732;2023-07-29T10:50:20;22.50;99.90
8002;DHT22;4046;48.774;8.732;2023-07-29T10:52:50;22.50;99.90
8002;DHT22;4046;48.774;8.732;2023-07-29T10:57:50;22.50;99.90
8002;DHT22;4046;48.774;8.732;2023-07-29T11:00:19;22.50;99.90
8002;DHT22;4046;48.774;8.732;2023-07-29T11:03:00;22.50;99.90
8002;DHT22;4046;48.774;8.732;2023-07-29T11:05:27;22.50;99.90
8002;DHT22;4046;48.774;8.732;2023-07-29T11:08:16;22.50;99.90
8002;DHT22;4046;48.774;8.732;2023-07-29T11:10:44;22.50;99.90
8002;DHT22;4046;48.774;8.732;2023-07-29T11:13:12;22.50;99.90
8002;DHT22;4046;48.774;8.732;2023-07-29T11:15:39;22.50;99.90
8002;DHT22;4046;48.774;8.732;2023-07-29T11:18:05;22.60;99.90
8002;DHT22;4046;48.774;8.732;2023-07-29T11:20:33;22.60;99.90
8002;DHT22;4046;48.774;8.732;2023-07-29T11:23:01;22.60;99.90
8002;DHT22;4046;48.774;8.732;2023-07-29T11:25:29;22.60;99.90
8002;DHT22;4046;48.774;8.732;2023-07-29T11:27:57;22.60;99.90
8002;DHT22;4046;48.774;8.732;2023-07-29T11:30:23;22.60;99.90
8002;DHT22;4046;48.774;8.732;2023-07-29T11:32:49;22.70;99.90
8002;DHT22;4046;48.774;8.732;2023-07-29T11:35:17;22.70;99.90
8002;DHT22;4046;48.774;8.732;2023-07-29T11:37:48;22.60;99.90
8002;DHT22;4046;48.774;8.732;2023-07-29T11:40:16;22.70;99.90
8002;DHT22;4046;48.774;8.732;2023-07-29T11:42:42;22.70;99.90
8002;DHT22;4046;48.774;8.732;2023-07-29T11:45:08;22.60;99.90
8002;DHT22;4046;48.774;8.732;2023-07-29T11:47:35;22.60;99.90
8002;DHT22;4046;48.774;8.732;2023-07-29T11:50:06;22.70;99.90
8002;DHT22;4046;48.774;8.732;2023-07-29T11:52:36;22.70;99.90
8002;DHT22;4046;48.774;8.732;2023-07-29T11:55:03;22.80;99.90
8002;DHT22;4046;48.774;8.732;2023-07-29T11:57:33;22.70;99.90
8002;DHT22;4046;48.774;8.732;2023-07-29T12:00:02;22.70;99.90
8002;DHT22;4046;48.774;8.732;2023-07-29T12:02:28;22.70;99.90
8002;DHT22;4046;48.774;8.732;2023-07-29T12:04:55;22.70;99.90
8002;DHT22;4046;48.774;8.732;2023-07-29T12:07:22;22.70;99.90
8002;DHT22;4046;48.774;8.732;2023-07-29T12:09:49;22.70;99.90
8002;DHT22;4046;48.774;8.732;2023-07-29T12:12:16;22.70;99.90
8002;DHT22;4046;48.774;8.732;2023-07-29T12:14:45;22.70;99.90
8002;DHT22;4046;48.774;8.732;2023-07-29T12:17:12;22.70;99.90
8002;DHT22;4046;48.774;8.732;2023-07-29T12:19:39;22.70;99.90
8002;DHT22;4046;48.774;8.732;2023-07-29T12:22:07;22.70;99.90
8002;DHT22;4046;48.774;8.732;2023-07-29T12:24:34;22.70;99.90
8002;DHT22;4046;48.774;8.732;2023-07-29T12:27:01;22.70;99.90
8002;DHT22;4046;48.774;8.732;2023-07-29T12:29:27;22.70;99.90
8002;DHT22;4046;48.774;8.732;2023-07-29T12:32:03;22.80;99.90
8002;DHT22;4046;48.774;8.732;2023-07-29T12:34:30;22.70;99.90
8002;DHT22;4046;48.774;8.732;2023-07-29T12:36:58;22.70;99.90
8002;DHT22;4046;48.774;8.732;2023-07-29T12:39:32;22.80;99.90
8002;DHT22;4046;48.774;8.732;2023-07-29T12:41:59;22.80;99.90
8002;DHT22;4046;48.774;8.732;2023-07-29T12:44:31;22.80;99.90
8002;DHT22;4046;48.774;8.732;2023-07-29T12:46:57;22.80;99.90
8002;DHT22;4046;48.774;8.732;2023-07-29T12:49:23;22.80;99.90
8002;DHT22;4046;48.774;8.732;2023-07-29T12:51:49;22.80;99.90
8002;DHT22;4046;48.774;8.732;2023-07-29T12:54:14;22.80;99.90
8002;DHT22;4046;48.774;8.732;2023-07-29T12:56:40;22.80;99.90
8002;DHT22;4046;48.774;8.732;2023-07-29T12:59:06;22.80;99.90
8002;DHT22;4046;48.774;8.732;2023-07-29T13:01:31;22.80;99.90
8002;DHT22;4046;48.774;8.732;2023-07-29T13:03:57;22.80;99.90
8002;DHT22;4046;48.774;8.732;2023-07-29T13:06:23;22.80;99.90
8002;DHT22;4046;48.774;8.732;2023-07-29T13:08:49;23.00;99.90
8002;DHT22;4046;48.774;8.732;2023-07-29T13:11:16;22.80;99.90
8002;DHT22;4046;48.774;8.732;2023-07-29T13:13:42;22.80;99.90
8002;DHT22;4046;48.774;8.732;2023-07-29T13:16:08;22.80;99.90
8002;DHT22;4046;48.774;8.732;2023-07-29T13:18:33;22.80;99.90
8002;DHT22;4046;48.774;8.732;2023-07-29T13:20:59;22.80;99.90
8002;DHT22;4046;48.774;8.732;2023-07-29T13:23:28;22.80;99.90
8002;DHT22;4046;48.774;8.732;2023-07-29T13:25:55;22.80;99.90
8002;DHT22;4046;48.774;8.732;2023-07-29T13:28:21;22.70;99.90
8002;DHT22;4046;48.774;8.732;2023-07-29T13:30:47;22.90;99.90
8002;DHT22;4046;48.774;8.732;2023-07-29T13:33:12;22.70;99.90
8002;DHT22;4046;48.774;8.732;2023-07-29T13:35:38;22.70;99.90
8002;DHT22;4046;48.774;8.732;2023-07-29T13:38:04;22.70;99.90
8002;DHT22;4046;48.774;8.732;2023-07-29T13:40:31;22.70;99.90
8002;DHT22;4046;48.774;8.732;2023-07-29T13:42:57;22.70;99.90
8002;DHT22;4046;48.774;8.732;2023-07-29T13:45:23;22.70;99.90
8002;DHT22;4046;48.774;8.732;2023-07-29T13:47:49;22.70;99.90
8002;DHT22;4046;48.774;8.732;2023-07-29T13:50:16;22.80;99.90
8002;DHT22;4046;48.774;8.732;2023-07-29T13:52:42;22.80;99.90
8002;DHT22;4046;48.774;8.732;2023-07-29T13:55:08;22.80;99.90
8002;DHT22;4046;48.774;8.732;2023-07-29T13:57:33;22.80;99.90
8002;DHT22;4046;48.774;8.732;2023-07-29T13:59:59;22.80;99.90
8002;DHT22;4046;48.774;8.732;2023-07-29T14:02:25;22.80;99.90
8002;DHT22;4046;48.774;8.732;2023-07-29T14:04:54;22.80;99.90
8002;DHT22;4046;48.774;8.732;2023-07-29T14:07:19;22.90;99.90
8002;DHT22;4046;48.774;8.732;2023-07-29T14:09:45;22.80;99.90
8002;DHT22;4046;48.774;8.732;2023-07-29T14:12:11;22.80;99.90
8002;DHT22;4046;48.774;8.732;2023-07-29T14:14:40;22.80;99.90
8002;DHT22;4046;48.774;8.732;2023-07-29T14:17:06;22.80;99.90
8002;DHT22;4046;48.774;8.732;2023-07-29T14:19:32;22.80;99.90
8002;DHT22;4046;48.774;8.732;2023-07-29T14:21:58;22.80;99.90
8002;DHT22;4046;48.774;8.732;2023-07-29T14:24:24;22.70;99.90
8002;DHT22;4046;48.774;8.732;2023-07-29T14:26:49;22.70;99.90
8002;DHT22;4046;48.774;8.732;2023-07-29T14:29:15;22.70;99.90
8002;DHT22;4046;48.774;8.732;2023-07-29T14:31:41;22.70;99.90
8002;DHT22;4046;48.774;8.732;2023-07-29T14:34:07;22.70;99.90
8002;DHT22;4046;48.774;8.732;2023-07-29T14:36:32;22.70;99.90
8002;DHT22;4046;48.774;8.732;2023-07-29T14:38:58;22.70;99.90
8002;DHT22;4046;48.774;8.732;2023-07-29T14:41:24;22.70;99.90
8002;DHT22;4046;48.774;8.732;2023-07-29T14:43:50;22.70;99.90
8002;DHT22;4046;48.774;8.732;2023-07-29T14:46:15;22.70;99.90
8002;DHT22;4046;48.774;8.732;2023-07-29T14:48:41;22.70;99.90
8002;DHT22;4046;48.774;8.732;2023-07-29T14:51:07;22.70;99.90
8002;DHT22;4046;48.774;8.732;2023-07-29T14:53:32;22.80;99.90
8002;DHT22;4046;48.774;8.732;2023-07-29T14:55:58;22.70;99.90
8002;DHT22;4046;48.774;8.732;2023-07-29T14:58:24;22.70;99.90
8002;DHT22;4046;48.774;8.732;2023-07-29T15:00:51;22.80;99.90
8002;DHT22;4046;48.774;8.732;2023-07-29T15:03:17;22.70;99.90
8002;DHT22;4046;48.774;8.732;2023-07-29T15:05:43;22.80;99.90
8002;DHT22;4046;48.774;8.732;2023-07-29T15:08:09;22.80;99.90
8002;DHT22;4046;48.774;8.732;2023-07-29T15:10:35;22.70;99.90
8002;DHT22;4046;48.774;8.732;2023-07-29T15:13:01;22.70;99.90
8002;DHT22;4046;48.774;8.732;2023-07-29T15:15:27;22.70;99.90
8002;DHT22;4046;48.774;8.732;2023-07-29T15:17:53;22.70;99.90
8002;DHT22;4046;48.774;8.732;2023-07-29T15:20:19;22.70;99.90
8002;DHT22;4046;48.774;8.732;2023-07-29T15:22:44;22.80;99.90
8002;DHT22;4046;48.774;8.732;2023-07-29T15:25:10;22.70;99.90
8002;DHT22;4046;48.774;8.732;2023-07-29T15:27:37;22.80;99.90
8002;DHT22;4046;48.774;8.732;2023-07-29T15:30:03;22.70;99.90
8002;DHT22;4046;48.774;8.732;2023-07-29T15:32:29;22.80;99.90
8002;DHT22;4046;48.774;8.732;2023-07-29T15:34:54;22.80;99.90
8002;DHT22;4046;48.774;8.732;2023-07-29T15:37:20;22.80;99.90
8002;DHT22;4046;48.774;8.732;2023-07-29T15:39:46;22.70;99.90
8002;DHT22;4046;48.774;8.732;2023-07-29T15:42:12;22.80;99.90
8002;DHT22;4046;48.774;8.732;2023-07-29T15:44:37;22.80;99.90
8002;DHT22;4046;48.774;8.732;2023-07-29T15:47:03;22.80;99.90
8002;DHT22;4046;48.774;8.732;2023-07-29T15:49:29;22.80;99.90
8002;DHT22;4046;48.774;8.732;2023-07-29T15:51:55;22.80;99.90
8002;DHT22;4046;48.774;8.732;2023-07-29T15:54:20;22.80;99.90
8002;DHT22;4046;48.774;8.732;2023-07-29T15:56:46;22.80;99.90
8002;DHT22;4046;48.774;8.732;2023-07-29T15:59:12;22.80;99.90
8002;DHT22;4046;48.774;8.732;2023-07-29T16:01:38;22.80;99.90
8002;DHT22;4046;48.774;8.732;2023-07-29T16:04:03;22.80;99.90
8002;DHT22;4046;48.774;8.732;2023-07-29T16:06:29;22.80;99.90